Norwalk, Connecticut
Current Conditions -  °F | °C
As of 8:52 AM on Friday 24 Oct 2014 (Local Time) from KBDR Reporting Station
Light Rain Light Rain  
Wind Chill: 50°   Ceiling: 9500
Heat Index: 50°   Visibility: 10mi
Dew Point: 46°   Wind: 7mph
Humidity: 86%   Direction: 300°WNW
Pressure: 29.79"   Gusts: NA
Location:  41.11°N, 73.41°W
Report Text: KBDR 241252Z 30006KT 10SM -RA SCT080 OVC095 10/08 A2979 RMK AO2 SLP086 P0007 T01000078
Loading
Personal Weather Stations






























Interactive Weather Map New forecast layout! Learn more

10-Day Weather Forecast

Advertisements
Track Severe Weather on mobile